sensor_id;sensor_type;location;lat;lon;timestamp;pressure;altitude;pressure_sealevel;temperature
68745;BMP180;66104;45.456;11.064;2023-04-08T17:52:21;100841.00;;;13.90
68745;BMP180;66104;45.456;11.064;2023-04-08T17:54:59;100842.80;;;13.90
68745;BMP180;66104;45.456;11.064;2023-04-08T17:57:36;100844.20;;;13.80
68745;BMP180;66104;45.456;11.064;2023-04-08T18:00:16;100847.80;;;13.80
68745;BMP180;66104;45.456;11.064;2023-04-08T18:02:55;100848.20;;;13.70
68745;BMP180;66104;45.456;11.064;2023-04-08T18:05:31;100852.00;;;13.70
68745;BMP180;66104;45.456;11.064;2023-04-08T18:08:08;100855.40;;;13.62
68745;BMP180;66104;45.456;11.064;2023-04-08T18:10:46;100853.20;;;13.54
68745;BMP180;66104;45.456;11.064;2023-04-08T18:13:25;100855.80;;;13.50
68745;BMP180;66104;45.456;11.064;2023-04-08T18:16:01;100853.00;;;13.42
68745;BMP180;66104;45.456;11.064;2023-04-08T18:18:39;100860.20;;;13.32
68745;BMP180;66104;45.456;11.064;2023-04-08T18:21:17;100855.20;;;13.26
68745;BMP180;66104;45.456;11.064;2023-04-08T18:23:55;100856.20;;;13.20
68745;BMP180;66104;45.456;11.064;2023-04-08T18:26:31;100861.00;;;13.10
68745;BMP180;66104;45.456;11.064;2023-04-08T18:29:10;100866.40;;;13.10
68745;BMP180;66104;45.456;11.064;2023-04-08T18:31:47;100883.80;;;13.10
68745;BMP180;66104;45.456;11.064;2023-04-08T18:34:24;100894.40;;;13.00
68745;BMP180;66104;45.456;11.064;2023-04-08T18:37:02;100890.80;;;13.08
68745;BMP180;66104;45.456;11.064;2023-04-08T18:39:40;100890.00;;;13.10
68745;BMP180;66104;45.456;11.064;2023-04-08T18:42:18;100894.20;;;13.10
68745;BMP180;66104;45.456;11.064;2023-04-08T18:44:56;100895.60;;;13.16
68745;BMP180;66104;45.456;11.064;2023-04-08T18:47:32;100895.60;;;13.20
68745;BMP180;66104;45.456;11.064;2023-04-08T18:50:12;100899.80;;;13.20
68745;BMP180;66104;45.456;11.064;2023-04-08T18:52:49;100903.40;;;13.30
68745;BMP180;66104;45.456;11.064;2023-04-08T18:55:26;100915.00;;;13.30
68745;BMP180;66104;45.456;11.064;2023-04-08T18:58:05;100923.20;;;13.30
68745;BMP180;66104;45.456;11.064;2023-04-08T19:00:42;100923.40;;;13.30
68745;BMP180;66104;45.456;11.064;2023-04-08T19:03:19;100920.20;;;13.30
68745;BMP180;66104;45.456;11.064;2023-04-08T19:05:55;100926.60;;;13.30
68745;BMP180;66104;45.456;11.064;2023-04-08T19:08:33;100937.20;;;13.34
68745;BMP180;66104;45.456;11.064;2023-04-08T19:11:11;100942.20;;;13.34
68745;BMP180;66104;45.456;11.064;2023-04-08T19:13:48;100947.20;;;13.30
68745;BMP180;66104;45.456;11.064;2023-04-08T19:16:26;100943.80;;;13.30
68745;BMP180;66104;45.456;11.064;2023-04-08T19:19:04;100943.40;;;13.30
68745;BMP180;66104;45.456;11.064;2023-04-08T19:21:41;100948.80;;;13.24
68745;BMP180;66104;45.456;11.064;2023-04-08T19:24:19;100951.60;;;13.22
68745;BMP180;66104;45.456;11.064;2023-04-08T19:26:57;100953.40;;;13.28
68745;BMP180;66104;45.456;11.064;2023-04-08T19:29:34;100954.00;;;13.30
68745;BMP180;66104;45.456;11.064;2023-04-08T19:32:12;100957.80;;;13.30
68745;BMP180;66104;45.456;11.064;2023-04-08T19:34:48;100960.00;;;13.30
68745;BMP180;66104;45.456;11.064;2023-04-08T19:37:26;100965.80;;;13.30
68745;BMP180;66104;45.456;11.064;2023-04-08T19:40:03;100963.00;;;13.30
68745;BMP180;66104;45.456;11.064;2023-04-08T19:42:44;100958.80;;;13.30
68745;BMP180;66104;45.456;11.064;2023-04-08T19:45:23;100962.40;;;13.20
68745;BMP180;66104;45.456;11.064;2023-04-08T19:48:01;100966.80;;;13.20
68745;BMP180;66104;45.456;11.064;2023-04-08T19:50:42;100967.80;;;13.10
68745;BMP180;66104;45.456;11.064;2023-04-08T19:53:19;100972.40;;;13.00
68745;BMP180;66104;45.456;11.064;2023-04-08T19:56:04;100981.60;;;12.90
68745;BMP180;66104;45.456;11.064;2023-04-08T19:58:41;100980.20;;;12.80
68745;BMP180;66104;45.456;11.064;2023-04-08T20:01:18;100978.80;;;12.78
68745;BMP180;66104;45.456;11.064;2023-04-08T20:03:55;100972.00;;;12.70
68745;BMP180;66104;45.456;11.064;2023-04-08T20:06:33;100975.60;;;12.60
68745;BMP180;66104;45.456;11.064;2023-04-08T20:09:10;100973.40;;;12.50
68745;BMP180;66104;45.456;11.064;2023-04-08T20:11:46;100979.80;;;12.50
68745;BMP180;66104;45.456;11.064;2023-04-08T20:14:25;100985.80;;;12.40
68745;BMP180;66104;45.456;11.064;2023-04-08T20:17:02;100982.40;;;12.40
68745;BMP180;66104;45.456;11.064;2023-04-08T20:19:39;100981.60;;;12.30
68745;BMP180;66104;45.456;11.064;2023-04-08T20:22:17;100984.00;;;12.30
68745;BMP180;66104;45.456;11.064;2023-04-08T20:24:54;100985.20;;;12.20
68745;BMP180;66104;45.456;11.064;2023-04-08T20:27:34;100986.00;;;12.20
68745;BMP180;66104;45.456;11.064;2023-04-08T20:30:15;100983.40;;;12.20
68745;BMP180;66104;45.456;11.064;2023-04-08T20:32:53;100982.80;;;12.16
68745;BMP180;66104;45.456;11.064;2023-04-08T20:35:30;100986.40;;;12.14
68745;BMP180;66104;45.456;11.064;2023-04-08T20:38:08;100984.40;;;12.10
68745;BMP180;66104;45.456;11.064;2023-04-08T20:40:47;100984.60;;;12.10
68745;BMP180;66104;45.456;11.064;2023-04-08T20:43:24;100987.20;;;12.00
68745;BMP180;66104;45.456;11.064;2023-04-08T20:46:02;100984.20;;;12.00
68745;BMP180;66104;45.456;11.064;2023-04-08T20:48:47;100988.60;;;12.00
68745;BMP180;66104;45.456;11.064;2023-04-08T20:51:24;100988.40;;;12.00
68745;BMP180;66104;45.456;11.064;2023-04-08T20:54:02;100989.40;;;11.90
68745;BMP180;66104;45.456;11.064;2023-04-08T20:56:39;100992.20;;;11.90
68745;BMP180;66104;45.456;11.064;2023-04-08T20:59:17;100992.00;;;11.90
68745;BMP180;66104;45.456;11.064;2023-04-08T21:01:54;100990.60;;;11.90
68745;BMP180;66104;45.456;11.064;2023-04-08T21:04:32;100992.60;;;11.80
68745;BMP180;66104;45.456;11.064;2023-04-08T21:07:10;100988.20;;;11.80
68745;BMP180;66104;45.456;11.064;2023-04-08T21:09:48;100990.20;;;11.80
68745;BMP180;66104;45.456;11.064;2023-04-08T21:12:28;100989.60;;;11.70
68745;BMP180;66104;45.456;11.064;2023-04-08T21:15:07;100991.60;;;11.70
68745;BMP180;66104;45.456;11.064;2023-04-08T21:17:46;100989.40;;;11.70
68745;BMP180;66104;45.456;11.064;2023-04-08T21:20:25;100991.00;;;11.60
68745;BMP180;66104;45.456;11.064;2023-04-08T21:23:02;100993.20;;;11.60
68745;BMP180;66104;45.456;11.064;2023-04-08T21:25:46;100991.00;;;11.60
68745;BMP180;66104;45.456;11.064;2023-04-08T21:28:24;100994.00;;;11.60
68745;BMP180;66104;45.456;11.064;2023-04-08T21:31:11;100991.40;;;11.60
68745;BMP180;66104;45.456;11.064;2023-04-08T21:33:48;100991.20;;;11.60
68745;BMP180;66104;45.456;11.064;2023-04-08T21:36:25;100992.80;;;11.60
68745;BMP180;66104;45.456;11.064;2023-04-08T21:39:08;100996.00;;;11.60
68745;BMP180;66104;45.456;11.064;2023-04-08T21:41:45;100993.40;;;11.60
68745;BMP180;66104;45.456;11.064;2023-04-08T21:44:23;100995.40;;;11.60
68745;BMP180;66104;45.456;11.064;2023-04-08T21:47:00;100993.80;;;11.60
68745;BMP180;66104;45.456;11.064;2023-04-08T21:49:38;100992.80;;;11.60
68745;BMP180;66104;45.456;11.064;2023-04-08T21:52:16;100993.80;;;11.60
68745;BMP180;66104;45.456;11.064;2023-04-08T21:54:55;100994.80;;;11.66
68745;BMP180;66104;45.456;11.064;2023-04-08T21:57:33;100992.20;;;11.70
68745;BMP180;66104;45.456;11.064;2023-04-08T22:00:17;100991.20;;;11.70
68745;BMP180;66104;45.456;11.064;2023-04-08T22:02:54;100991.40;;;11.70
68745;BMP180;66104;45.456;11.064;2023-04-08T22:05:32;100991.20;;;11.70
68745;BMP180;66104;45.456;11.064;2023-04-08T22:08:11;100988.60;;;11.76
68745;BMP180;66104;45.456;11.064;2023-04-08T22:10:48;100992.80;;;11.80
68745;BMP180;66104;45.456;11.064;2023-04-08T22:13:26;100994.80;;;11.80
68745;BMP180;66104;45.456;11.064;2023-04-08T22:16:03;100993.00;;;11.80
68745;BMP180;66104;45.456;11.064;2023-04-08T22:18:40;100989.80;;;11.80
68745;BMP180;66104;45.456;11.064;2023-04-08T22:21:18;100990.40;;;11.80
68745;BMP180;66104;45.456;11.064;2023-04-08T22:23:55;100990.20;;;11.80
68745;BMP180;66104;45.456;11.064;2023-04-08T22:26:31;100990.40;;;11.80
68745;BMP180;66104;45.456;11.064;2023-04-08T22:29:09;100991.60;;;11.80
68745;BMP180;66104;45.456;11.064;2023-04-08T22:31:46;100988.40;;;11.80
68745;BMP180;66104;45.456;11.064;2023-04-08T22:34:23;100984.40;;;11.80
68745;BMP180;66104;45.456;11.064;2023-04-08T22:37:00;100986.40;;;11.80
68745;BMP180;66104;45.456;11.064;2023-04-08T22:39:38;100986.00;;;11.80
68745;BMP180;66104;45.456;11.064;2023-04-08T22:42:16;100984.80;;;11.80
68745;BMP180;66104;45.456;11.064;2023-04-08T22:44:52;100983.80;;;11.80
68745;BMP180;66104;45.456;11.064;2023-04-08T22:47:29;100985.80;;;11.80
68745;BMP180;66104;45.456;11.064;2023-04-08T22:50:08;100985.40;;;11.80
68745;BMP180;66104;45.456;11.064;2023-04-08T22:52:47;100984.40;;;11.80
68745;BMP180;66104;45.456;11.064;2023-04-08T22:55:24;100986.00;;;11.80
68745;BMP180;66104;45.456;11.064;2023-04-08T22:58:02;100981.00;;;11.76
68745;BMP180;66104;45.456;11.064;2023-04-08T23:00:38;100982.40;;;11.70
68745;BMP180;66104;45.456;11.064;2023-04-08T23:03:15;100983.00;;;11.80
68745;BMP180;66104;45.456;11.064;2023-04-08T23:05:54;100988.60;;;11.80
68745;BMP180;66104;45.456;11.064;2023-04-08T23:08:31;100984.00;;;11.76
68745;BMP180;66104;45.456;11.064;2023-04-08T23:11:07;100983.40;;;11.70
68745;BMP180;66104;45.456;11.064;2023-04-08T23:13:44;100981.80;;;11.74
68745;BMP180;66104;45.456;11.064;2023-04-08T23:16:22;100983.40;;;11.70
68745;BMP180;66104;45.456;11.064;2023-04-08T23:18:59;100985.00;;;11.72
68745;BMP180;66104;45.456;11.064;2023-04-08T23:21:37;100985.00;;;11.78
68745;BMP180;66104;45.456;11.064;2023-04-08T23:24:14;100989.20;;;11.80
68745;BMP180;66104;45.456;11.064;2023-04-08T23:26:52;100991.80;;;11.80
68745;BMP180;66104;45.456;11.064;2023-04-08T23:29:29;100993.80;;;11.80
68745;BMP180;66104;45.456;11.064;2023-04-08T23:32:06;100996.60;;;11.70
68745;BMP180;66104;45.456;11.064;2023-04-08T23:34:44;100997.20;;;11.70
68745;BMP180;66104;45.456;11.064;2023-04-08T23:37:21;101000.40;;;11.70
68745;BMP180;66104;45.456;11.064;2023-04-08T23:40:03;101004.00;;;11.78
68745;BMP180;66104;45.456;11.064;2023-04-08T23:42:40;101002.20;;;11.80
68745;BMP180;66104;45.456;11.064;2023-04-08T23:45:19;101000.20;;;11.80
68745;BMP180;66104;45.456;11.064;2023-04-08T23:47:57;101002.80;;;11.80
68745;BMP180;66104;45.456;11.064;2023-04-08T23:50:35;100996.80;;;11.80
68745;BMP180;66104;45.456;11.064;2023-04-08T23:53:12;100997.20;;;11.80
68745;BMP180;66104;45.456;11.064;2023-04-08T23:55:49;100993.60;;;11.80
68745;BMP180;66104;45.456;11.064;2023-04-08T23:58:26;100999.00;;;11.82
